Time;durP1;ratioP1;P1;durP2;ratioP2;P2;SDS_P1;SDS_P2;PMS_P1;PMS_P2;Temp;Humidity;BMP_temperature;BMP_pressure;BME280_temperature;BME280_humidity;BME280_pressure;Samples;Min_cycle;Max_cycle;Signal;HPM_P1;HPM_P2
2023/08/01 12:48:34;;;;;;;8.35;3.47;;;;;;;;;;5114068;27;20156;-56
2023/08/01 12:51:02;;;;;;;4.72;2.72;;;;;;;;;;5103512;27;20123;-58
2023/08/01 12:53:28;;;;;;;7.82;3.40;;;;;;;;;;5100481;28;20067;-57
2023/08/01 12:55:55;;;;;;;9.05;3.72;;;;;;;;;;5100746;28;20109;-57
2023/08/01 12:58:21;;;;;;;12.90;3.25;;;;;;;;;;5104998;28;20135;-57
2023/08/01 13:00:48;;;;;;;3.83;2.42;;;;;;;;;;5103651;28;20051;-56
2023/08/01 13:03:14;;;;;;;5.25;2.50;;;;;;;;;;5105208;28;20056;-58
2023/08/01 13:05:41;;;;;;;6.30;3.33;;;;;;;;;;5103136;28;20054;-59
2023/08/01 13:08:08;;;;;;;4.55;2.50;;;;;;;;;;5103702;28;20562;-58
2023/08/01 13:10:36;;;;;;;4.60;2.45;;;;;;;;;;5091525;27;20048;-57
2023/08/01 13:13:02;;;;;;;7.25;2.80;;;;;;;;;;5102484;28;20135;-57
2023/08/01 13:15:29;;;;;;;4.80;2.38;;;;;;;;;;5102003;28;20075;-58
2023/08/01 13:17:56;;;;;;;6.22;2.92;;;;;;;;;;5102501;28;20109;-55
2023/08/01 13:20:22;;;;;;;7.35;3.00;;;;;;;;;;5104433;28;20048;-56
2023/08/01 13:22:50;;;;;;;9.93;3.28;;;;;;;;;;5100706;28;20055;-56
2023/08/01 13:25:17;;;;;;;6.72;2.08;;;;;;;;;;5104453;28;20142;-55
2023/08/01 13:27:43;;;;;;;7.18;2.63;;;;;;;;;;5097370;28;20516;-55
2023/08/01 13:30:13;;;;;;;3.22;2.30;;;;;;;;;;5093209;28;20047;-56
2023/08/01 13:32:41;;;;;;;8.10;2.75;;;;;;;;;;5104021;28;20051;-57
2023/08/01 13:35:07;;;;;;;5.88;2.50;;;;;;;;;;5104589;28;20472;-56
2023/08/01 13:37:35;;;;;;;4.80;2.30;;;;;;;;;;5104797;28;20075;-56
2023/08/01 13:40:01;;;;;;;7.35;2.33;;;;;;;;;;5104925;28;20575;-56
2023/08/01 13:42:28;;;;;;;7.10;2.50;;;;;;;;;;5087401;28;20138;-56
2023/08/01 13:44:54;;;;;;;5.45;2.45;;;;;;;;;;5102298;28;20558;-56
2023/08/01 13:47:21;;;;;;;4.90;2.90;;;;;;;;;;5104388;28;20391;-56
2023/08/01 13:49:47;;;;;;;6.90;2.55;;;;;;;;;;5101450;28;20244;-56
2023/08/01 13:52:14;;;;;;;4.45;2.13;;;;;;;;;;5104857;28;20598;-56
2023/08/01 13:54:40;;;;;;;4.90;2.33;;;;;;;;;;5104417;28;20139;-55
2023/08/01 13:57:07;;;;;;;10.98;4.13;;;;;;;;;;5104181;28;20109;-56
2023/08/01 13:59:33;;;;;;;3.38;1.95;;;;;;;;;;5092668;28;20056;-56
2023/08/01 14:01:59;;;;;;;5.50;2.30;;;;;;;;;;5083554;28;20056;-56
2023/08/01 14:04:26;;;;;;;5.38;2.15;;;;;;;;;;5089777;28;20071;-56
2023/08/01 14:06:52;;;;;;;7.22;2.55;;;;;;;;;;5090341;28;20127;-56
2023/08/01 14:09:19;;;;;;;7.50;1.80;;;;;;;;;;5089518;28;20593;-56
2023/08/01 14:11:45;;;;;;;4.68;2.08;;;;;;;;;;5088947;28;20131;-57
2023/08/01 14:14:12;;;;;;;3.88;1.90;;;;;;;;;;5063644;28;20698;-56
2023/08/01 14:16:39;;;;;;;3.05;1.75;;;;;;;;;;5090668;28;20101;-56
2023/08/01 14:19:06;;;;;;;5.80;2.15;;;;;;;;;;5082221;28;20048;-56
2023/08/01 14:21:34;;;;;;;5.07;2.00;;;;;;;;;;5090284;28;20176;-57
2023/08/01 14:24:00;;;;;;;4.53;2.03;;;;;;;;;;5089927;28;20040;-57
2023/08/01 14:26:26;;;;;;;6.13;2.40;;;;;;;;;;5090074;28;20105;-57
2023/08/01 14:28:53;;;;;;;8.05;2.17;;;;;;;;;;5089680;28;20168;-57
2023/08/01 14:31:19;;;;;;;8.68;3.38;;;;;;;;;;5070995;28;20155;-57
2023/08/01 14:33:46;;;;;;;7.57;2.95;;;;;;;;;;5069829;28;20404;-57
2023/08/01 14:36:13;;;;;;;6.10;2.38;;;;;;;;;;5066511;28;20052;-58
2023/08/01 14:38:39;;;;;;;8.48;2.55;;;;;;;;;;5067015;28;20436;-58
2023/08/01 14:41:06;;;;;;;4.75;2.28;;;;;;;;;;5060684;28;20179;-60
2023/08/01 14:43:44;;;;;;;4.25;2.42;;;;;;;;;;5066689;28;20044;-59
2023/08/01 14:46:11;;;;;;;5.15;1.70;;;;;;;;;;5051444;28;20109;-58
2023/08/01 14:48:37;;;;;;;5.18;2.00;;;;;;;;;;5068380;28;20124;-58
2023/08/01 14:51:07;;;;;;;6.63;1.83;;;;;;;;;;5068806;28;20044;-57
2023/08/01 14:53:34;;;;;;;4.30;1.55;;;;;;;;;;5069468;28;20405;-55
2023/08/01 14:56:02;;;;;;;9.38;2.30;;;;;;;;;;5066269;28;20081;-58
2023/08/01 14:58:29;;;;;;;2.95;1.70;;;;;;;;;;5049397;28;20049;-59
2023/08/01 15:00:55;;;;;;;5.00;1.85;;;;;;;;;;5063511;28;20449;-58
2023/08/01 15:03:22;;;;;;;8.50;2.03;;;;;;;;;;5052004;28;20120;-59
2023/08/01 15:05:48;;;;;;;6.82;1.77;;;;;;;;;;5068914;28;20131;-58
2023/08/01 15:08:15;;;;;;;17.80;4.72;;;;;;;;;;5069485;28;20048;-54
2023/08/01 15:10:42;;;;;;;8.18;2.53;;;;;;;;;;5068417;28;20398;-57
2023/08/01 15:13:08;;;;;;;12.15;3.35;;;;;;;;;;5059571;28;20044;-60
2023/08/01 15:15:36;;;;;;;10.27;3.78;;;;;;;;;;5069221;28;20049;-57
2023/08/01 15:18:02;;;;;;;9.00;2.83;;;;;;;;;;5069225;28;20573;-56
2023/08/01 15:20:29;;;;;;;4.00;3.00;;;;;;;;;;5068870;28;20125;-57
2023/08/01 15:22:55;;;;;;;7.45;2.80;;;;;;;;;;5052089;28;20083;-57
2023/08/01 15:25:22;;;;;;;5.90;2.65;;;;;;;;;;5068911;28;20140;-54
2023/08/01 15:27:48;;;;;;;8.68;2.88;;;;;;;;;;5069255;28;20045;-56
2023/08/01 15:30:14;;;;;;;5.30;2.45;;;;;;;;;;5069252;28;20048;-57
2023/08/01 15:32:41;;;;;;;6.00;2.50;;;;;;;;;;5069287;28;20106;-56
2023/08/01 15:35:07;;;;;;;5.93;2.70;;;;;;;;;;5069152;28;20048;-57
2023/08/01 15:37:34;;;;;;;5.18;2.30;;;;;;;;;;5068662;28;20052;-59
2023/08/01 15:40:01;;;;;;;4.95;2.28;;;;;;;;;;5069401;28;20568;-57
2023/08/01 15:42:29;;;;;;;5.40;3.00;;;;;;;;;;5069485;28;20044;-57
2023/08/01 15:44:56;;;;;;;5.43;2.40;;;;;;;;;;5041949;28;20040;-58
2023/08/01 15:47:23;;;;;;;11.80;3.50;;;;;;;;;;5068364;28;20145;-55
2023/08/01 15:49:51;;;;;;;3.80;2.60;;;;;;;;;;5065101;28;20131;-55
2023/08/01 15:52:18;;;;;;;7.25;2.70;;;;;;;;;;5069000;28;20052;-55
2023/08/01 15:54:44;;;;;;;5.90;2.53;;;;;;;;;;5066726;28;20056;-57
2023/08/01 15:57:10;;;;;;;4.60;1.92;;;;;;;;;;5068461;28;20483;-57
2023/08/01 15:59:37;;;;;;;5.40;2.13;;;;;;;;;;5066225;28;20124;-56
2023/08/01 16:02:03;;;;;;;5.97;2.50;;;;;;;;;;5068314;28;20044;-57
2023/08/01 16:04:30;;;;;;;5.13;2.30;;;;;;;;;;5048688;28;20060;-57
2023/08/01 16:06:57;;;;;;;3.17;1.70;;;;;;;;;;5067577;28;20125;-57
2023/08/01 16:09:24;;;;;;;5.07;1.83;;;;;;;;;;5064743;28;20489;-57
2023/08/01 16:11:50;;;;;;;4.60;1.30;;;;;;;;;;5062998;28;20056;-57
2023/08/01 16:14:17;;;;;;;4.80;1.80;;;;;;;;;;5066935;28;20059;-57
2023/08/01 16:17:03;;;;;;;3.55;1.48;;;;;;;;;;5068161;28;20437;-57
2023/08/01 16:19:30;;;;;;;2.80;0.93;;;;;;;;;;5067154;28;20052;-56
2023/08/01 16:21:56;;;;;;;2.25;1.38;;;;;;;;;;5067618;28;20515;-57
2023/08/01 16:24:23;;;;;;;4.10;1.17;;;;;;;;;;5049594;28;20052;-56
2023/08/01 16:26:49;;;;;;;3.70;1.30;;;;;;;;;;5064060;28;20696;-55
2023/08/01 16:29:16;;;;;;;2.80;1.52;;;;;;;;;;5065250;28;20048;-56
2023/08/01 16:31:42;;;;;;;2.53;1.63;;;;;;;;;;5067098;28;20127;-56
2023/08/01 16:34:08;;;;;;;3.83;1.50;;;;;;;;;;5064707;28;20040;-57
2023/08/01 16:36:35;;;;;;;2.53;1.27;;;;;;;;;;5067066;28;20045;-55
2023/08/01 16:39:02;;;;;;;6.63;1.77;;;;;;;;;;5067267;28;20427;-56
2023/08/01 16:41:28;;;;;;;2.90;1.17;;;;;;;;;;5066570;28;20044;-57
2023/08/01 16:43:55;;;;;;;3.72;1.25;;;;;;;;;;5061512;28;20062;-57
2023/08/01 16:46:22;;;;;;;4.13;1.88;;;;;;;;;;5066731;28;20049;-64
2023/08/01 16:48:48;;;;;;;3.10;1.70;;;;;;;;;;5065828;28;20048;-57
2023/08/01 16:51:15;;;;;;;6.00;1.70;;;;;;;;;;5061161;28;20049;-55
2023/08/01 16:53:41;;;;;;;2.97;1.13;;;;;;;;;;5047454;28;20463;-56
2023/08/01 16:56:08;;;;;;;4.35;1.70;;;;;;;;;;5056446;28;20040;-56
2023/08/01 16:58:34;;;;;;;4.93;1.63;;;;;;;;;;5062421;28;20105;-56
2023/08/01 17:01:01;;;;;;;6.53;2.10;;;;;;;;;;5066575;28;20072;-56
2023/08/01 17:03:27;;;;;;;7.32;1.73;;;;;;;;;;5067191;28;20079;-56
2023/08/01 17:05:54;;;;;;;11.45;5.80;;;;;;;;;;5048736;28;20059;-56
2023/08/01 17:08:21;;;;;;;2.88;1.58;;;;;;;;;;5066840;28;20048;-56
2023/08/01 17:10:47;;;;;;;8.35;3.72;;;;;;;;;;5065748;28;20369;-56
2023/08/01 17:13:14;;;;;;;6.40;2.30;;;;;;;;;;5066872;28;20068;-56
2023/08/01 17:15:40;;;;;;;8.50;4.05;;;;;;;;;;5064831;28;20473;-56
2023/08/01 17:18:07;;;;;;;8.63;2.35;;;;;;;;;;5066660;28;20102;-56
2023/08/01 17:20:36;;;;;;;3.70;1.77;;;;;;;;;;5064206;28;20052;-56
2023/08/01 17:23:02;;;;;;;5.82;1.90;;;;;;;;;;5060195;28;20053;-56
2023/08/01 17:25:29;;;;;;;5.65;1.80;;;;;;;;;;5065831;28;20044;-55
2023/08/01 17:27:56;;;;;;;5.82;2.75;;;;;;;;;;5066588;28;20052;-55
2023/08/01 17:30:23;;;;;;;6.40;3.47;;;;;;;;;;5067807;28;20041;-57
2023/08/01 17:32:49;;;;;;;9.55;3.63;;;;;;;;;;5065219;28;20107;-57
2023/08/01 17:35:16;;;;;;;3.58;2.30;;;;;;;;;;5066682;28;20118;-56
2023/08/01 17:37:44;;;;;;;5.15;2.03;;;;;;;;;;5072303;28;20526;-56
2023/08/01 17:40:10;;;;;;;7.60;2.03;;;;;;;;;;5070854;28;20044;-56
2023/08/01 17:42:37;;;;;;;3.65;2.08;;;;;;;;;;5070064;28;20072;-57
2023/08/01 17:45:04;;;;;;;4.85;2.00;;;;;;;;;;5071598;28;20182;-56
2023/08/01 17:47:31;;;;;;;5.22;1.90;;;;;;;;;;5070169;28;20450;-57
2023/08/01 17:49:58;;;;;;;4.13;1.52;;;;;;;;;;5067859;28;20052;-57
2023/08/01 17:52:25;;;;;;;3.03;1.33;;;;;;;;;;5071071;28;20044;-56
2023/08/01 17:54:51;;;;;;;3.45;1.15;;;;;;;;;;5069818;28;20480;-56
2023/08/01 17:57:18;;;;;;;4.53;1.45;;;;;;;;;;5071019;28;20121;-57
2023/08/01 17:59:44;;;;;;;5.20;2.25;;;;;;;;;;5068981;28;20443;-57
2023/08/01 18:02:11;;;;;;;3.75;2.10;;;;;;;;;;5068968;28;20053;-56
2023/08/01 18:04:37;;;;;;;2.45;1.17;;;;;;;;;;5069884;28;20060;-56
2023/08/01 18:07:04;;;;;;;5.78;1.75;;;;;;;;;;5067793;28;20072;-56
2023/08/01 18:09:31;;;;;;;3.88;1.13;;;;;;;;;;5068995;28;20048;-56
2023/08/01 18:11:57;;;;;;;4.78;1.70;;;;;;;;;;5069670;28;20049;-56
2023/08/01 18:14:24;;;;;;;4.15;1.20;;;;;;;;;;5068056;28;20048;-56
2023/08/01 18:16:50;;;;;;;13.50;7.85;;;;;;;;;;5069840;28;20048;-56
2023/08/01 18:19:17;;;;;;;5.40;1.80;;;;;;;;;;5069068;28;20064;-56
2023/08/01 18:21:43;;;;;;;8.52;4.88;;;;;;;;;;5069521;28;20193;-56
2023/08/01 18:24:10;;;;;;;4.97;1.73;;;;;;;;;;5067626;28;20056;-56
2023/08/01 18:26:38;;;;;;;4.32;1.98;;;;;;;;;;5069169;28;20503;-56
2023/08/01 18:29:06;;;;;;;14.50;6.20;;;;;;;;;;5069833;28;20048;-57
2023/08/01 18:31:32;;;;;;;5.35;2.75;;;;;;;;;;5068843;28;20098;-56
2023/08/01 18:33:59;;;;;;;14.30;5.28;;;;;;;;;;5069479;28;20063;-56
2023/08/01 18:36:25;;;;;;;3.97;2.28;;;;;;;;;;5069103;28;20596;-56
2023/08/01 18:38:52;;;;;;;12.48;3.63;;;;;;;;;;5068652;28;20052;-56
2023/08/01 18:41:19;;;;;;;11.57;5.22;;;;;;;;;;5068213;28;20052;-56
2023/08/01 18:43:46;;;;;;;4.28;2.67;;;;;;;;;;5067646;28;20086;-56
2023/08/01 18:46:13;;;;;;;10.63;4.43;;;;;;;;;;5067441;28;20075;-57
2023/08/01 18:48:40;;;;;;;7.82;4.10;;;;;;;;;;5068642;28;20056;-56
2023/08/01 18:51:10;;;;;;;5.00;3.13;;;;;;;;;;5069259;28;20132;-56
2023/08/01 18:53:37;;;;;;;4.82;2.10;;;;;;;;;;5068897;28;20127;-56
2023/08/01 18:56:11;;;;;;;7.20;2.28;;;;;;;;;;5065732;28;20072;-56
2023/08/01 18:58:40;;;;;;;4.68;2.08;;;;;;;;;;5066865;28;20049;-56
2023/08/01 19:01:11;;;;;;;11.93;3.45;;;;;;;;;;5067311;28;20055;-56
2023/08/01 19:03:38;;;;;;;4.78;3.20;;;;;;;;;;5061577;28;20067;-56
2023/08/01 19:06:04;;;;;;;5.63;2.17;;;;;;;;;;5051765;28;20052;-56
2023/08/01 19:08:31;;;;;;;11.25;4.82;;;;;;;;;;5068169;28;20366;-57
2023/08/01 19:10:58;;;;;;;6.13;2.90;;;;;;;;;;5068124;28;20552;-56
2023/08/01 19:13:24;;;;;;;3.85;1.95;;;;;;;;;;5062760;28;20060;-56
2023/08/01 19:15:51;;;;;;;3.30;1.63;;;;;;;;;;5067149;28;20121;-56
2023/08/01 19:18:18;;;;;;;3.88;1.80;;;;;;;;;;5068509;28;20494;-56
2023/08/01 19:20:46;;;;;;;4.82;1.77;;;;;;;;;;5069703;28;20052;-57
2023/08/01 19:23:13;;;;;;;4.78;2.00;;;;;;;;;;5068554;28;20177;-56
2023/08/01 19:25:39;;;;;;;4.00;1.35;;;;;;;;;;5063966;28;20537;-56
2023/08/01 19:28:06;;;;;;;5.45;3.20;;;;;;;;;;5053428;28;20040;-56
2023/08/01 19:30:33;;;;;;;4.22;2.08;;;;;;;;;;5066397;28;20051;-56
2023/08/01 19:33:04;;;;;;;8.15;1.75;;;;;;;;;;5066642;28;20040;-56
2023/08/01 19:35:31;;;;;;;6.65;3.67;;;;;;;;;;5067416;28;20093;-56
2023/08/01 19:37:57;;;;;;;5.68;2.58;;;;;;;;;;5067383;28;20129;-57
2023/08/01 19:40:26;;;;;;;8.27;3.55;;;;;;;;;;5067389;28;20586;-56
2023/08/01 19:42:52;;;;;;;6.22;1.88;;;;;;;;;;5069294;28;20063;-56
2023/08/01 19:45:19;;;;;;;4.93;3.20;;;;;;;;;;5062420;28;20040;-57
2023/08/01 19:47:45;;;;;;;5.97;3.05;;;;;;;;;;5068140;28;20059;-56
2023/08/01 19:50:12;;;;;;;5.43;2.70;;;;;;;;;;5068874;28;20037;-56
2023/08/01 19:52:39;;;;;;;2.63;1.40;;;;;;;;;;5068069;28;20128;-56
2023/08/01 19:55:05;;;;;;;6.90;1.60;;;;;;;;;;5068189;28;20468;-56
2023/08/01 19:57:33;;;;;;;2.92;1.50;;;;;;;;;;5068863;28;20064;-56
2023/08/01 19:59:59;;;;;;;7.68;2.40;;;;;;;;;;5067012;28;20109;-56
2023/08/01 20:02:26;;;;;;;7.47;2.22;;;;;;;;;;5066527;28;20705;-55
2023/08/01 20:04:53;;;;;;;3.53;1.60;;;;;;;;;;5068048;28;20067;-55
2023/08/01 20:07:19;;;;;;;4.32;1.50;;;;;;;;;;5069252;28;20058;-55
2023/08/01 20:09:46;;;;;;;4.22;1.88;;;;;;;;;;5068254;28;20081;-56
2023/08/01 20:12:13;;;;;;;5.35;1.63;;;;;;;;;;5069124;28;20044;-55
2023/08/01 20:14:39;;;;;;;4.22;1.90;;;;;;;;;;5063901;28;20135;-55
2023/08/01 20:17:05;;;;;;;4.70;1.70;;;;;;;;;;5068012;28;20044;-56
2023/08/01 20:19:37;;;;;;;5.75;1.90;;;;;;;;;;5068261;28;20133;-56
2023/08/01 20:22:04;;;;;;;4.18;1.90;;;;;;;;;;5068895;28;20052;-56
2023/08/01 20:24:30;;;;;;;3.92;1.80;;;;;;;;;;5067279;28;20052;-56
2023/08/01 20:26:57;;;;;;;5.95;2.15;;;;;;;;;;5068451;28;20433;-55
2023/08/01 20:29:23;;;;;;;3.75;1.95;;;;;;;;;;5067289;28;20487;-55
2023/08/01 20:31:50;;;;;;;3.38;2.13;;;;;;;;;;5073138;28;20552;-56
2023/08/01 20:34:16;;;;;;;5.72;1.88;;;;;;;;;;5049381;28;20065;-55
2023/08/01 20:36:43;;;;;;;5.22;2.95;;;;;;;;;;5068046;28;20064;-56
2023/08/01 20:39:10;;;;;;;3.33;1.70;;;;;;;;;;5067568;28;20056;-56
2023/08/01 20:41:36;;;;;;;3.92;1.90;;;;;;;;;;5067734;28;20052;-55
2023/08/01 20:44:03;;;;;;;4.07;1.70;;;;;;;;;;5067867;28;20078;-55
2023/08/01 20:46:31;;;;;;;5.47;2.20;;;;;;;;;;5049121;28;20113;-55
2023/08/01 20:49:05;;;;;;;3.20;1.67;;;;;;;;;;5067467;28;20503;-56
2023/08/01 20:51:32;;;;;;;3.20;1.45;;;;;;;;;;5068282;28;20040;-55
2023/08/01 20:53:58;;;;;;;3.63;2.25;;;;;;;;;;5050388;28;20083;-56
2023/08/01 20:56:25;;;;;;;3.88;1.60;;;;;;;;;;5067631;28;20109;-55
2023/08/01 20:58:51;;;;;;;2.75;1.60;;;;;;;;;;5069048;28;20522;-55
2023/08/01 21:01:18;;;;;;;2.92;1.58;;;;;;;;;;5068207;28;20380;-55
2023/08/01 21:03:44;;;;;;;7.60;1.95;;;;;;;;;;5067966;28;20079;-56
2023/08/01 21:06:14;;;;;;;5.35;1.88;;;;;;;;;;5063211;28;20052;-55
2023/08/01 21:08:42;;;;;;;7.15;2.60;;;;;;;;;;5068289;28;20044;-56
2023/08/01 21:11:28;;;;;;;5.60;1.67;;;;;;;;;;5071285;28;20551;-56
2023/08/01 21:13:55;;;;;;;6.47;2.10;;;;;;;;;;5071481;28;20044;-56
2023/08/01 21:16:21;;;;;;;7.00;1.88;;;;;;;;;;5070950;28;20044;-55
2023/08/01 21:18:48;;;;;;;6.18;1.92;;;;;;;;;;5071416;28;20090;-55
2023/08/01 21:21:15;;;;;;;5.90;2.17;;;;;;;;;;5071877;28;20075;-56
2023/08/01 21:23:42;;;;;;;5.88;1.98;;;;;;;;;;5071251;28;20048;-55
2023/08/01 21:26:09;;;;;;;5.35;1.80;;;;;;;;;;5053403;28;20052;-55
2023/08/01 21:28:36;;;;;;;6.15;2.35;;;;;;;;;;5059233;28;20080;-55
2023/08/01 21:31:03;;;;;;;4.53;2.00;;;;;;;;;;5068264;28;20426;-55
2023/08/01 21:33:29;;;;;;;4.82;2.55;;;;;;;;;;5071351;28;20048;-56
2023/08/01 21:35:56;;;;;;;5.97;1.58;;;;;;;;;;5071544;28;20071;-55
2023/08/01 21:38:22;;;;;;;3.25;1.90;;;;;;;;;;5064536;28;20076;-55
2023/08/01 21:40:49;;;;;;;5.55;2.28;;;;;;;;;;5068205;28;20129;-56
2023/08/01 21:43:15;;;;;;;4.47;1.70;;;;;;;;;;5070890;28;20080;-56
2023/08/01 21:45:42;;;;;;;5.22;2.60;;;;;;;;;;5070851;28;20040;-55
2023/08/01 21:48:08;;;;;;;4.82;2.10;;;;;;;;;;5071062;28;20064;-56
2023/08/01 21:50:35;;;;;;;5.40;1.75;;;;;;;;;;5070988;28;20044;-55
2023/08/01 21:53:02;;;;;;;4.88;1.85;;;;;;;;;;5071582;28;20173;-55
2023/08/01 21:55:28;;;;;;;8.80;2.13;;;;;;;;;;5064923;28;20051;-55
2023/08/01 21:57:54;;;;;;;4.70;2.10;;;;;;;;;;5068850;28;20083;-55
2023/08/01 22:00:22;;;;;;;3.75;1.70;;;;;;;;;;5066993;28;20048;-55
2023/08/01 22:02:49;;;;;;;3.28;1.75;;;;;;;;;;5069124;28;20052;-56
2023/08/01 22:05:15;;;;;;;7.15;1.80;;;;;;;;;;5069049;28;20044;-56
2023/08/01 22:07:42;;;;;;;3.33;1.83;;;;;;;;;;5066519;28;20113;-56
2023/08/01 22:10:10;;;;;;;5.40;1.90;;;;;;;;;;5050131;28;20105;-55
2023/08/01 22:12:37;;;;;;;5.15;1.98;;;;;;;;;;5069952;28;20048;-56
2023/08/01 22:15:04;;;;;;;4.63;2.00;;;;;;;;;;5069329;28;20047;-55
2023/08/01 22:17:31;;;;;;;6.07;2.03;;;;;;;;;;5069018;28;20695;-55
2023/08/01 22:19:57;;;;;;;4.90;2.05;;;;;;;;;;5068706;28;20083;-55
2023/08/01 22:22:24;;;;;;;6.07;1.88;;;;;;;;;;5069390;28;20610;-56
2023/08/01 22:24:51;;;;;;;7.22;2.13;;;;;;;;;;5070051;28;20075;-55
2023/08/01 22:27:18;;;;;;;4.72;2.10;;;;;;;;;;5069549;28;20128;-55
2023/08/01 22:29:44;;;;;;;6.22;2.13;;;;;;;;;;5069029;28;20128;-55
2023/08/01 22:32:11;;;;;;;4.97;1.90;;;;;;;;;;5063652;28;20087;-56
2023/08/01 22:34:37;;;;;;;8.55;2.92;;;;;;;;;;5066464;28;20041;-55
2023/08/01 22:37:04;;;;;;;5.28;1.92;;;;;;;;;;5062596;28;20076;-56
2023/08/01 22:39:30;;;;;;;7.25;3.38;;;;;;;;;;5071306;28;20460;-56
2023/08/01 22:41:57;;;;;;;4.40;1.67;;;;;;;;;;5052752;28;20052;-55
2023/08/01 22:44:23;;;;;;;5.70;1.92;;;;;;;;;;5069182;28;20048;-56
2023/08/01 22:46:50;;;;;;;4.25;2.33;;;;;;;;;;5070335;28;20048;-56
2023/08/01 22:49:16;;;;;;;3.78;1.70;;;;;;;;;;5069024;28;20083;-57
2023/08/01 22:51:43;;;;;;;7.20;1.73;;;;;;;;;;5069364;28;20058;-56
2023/08/01 22:54:12;;;;;;;9.30;2.78;;;;;;;;;;5067506;28;20055;-56
2023/08/01 22:56:39;;;;;;;5.15;2.75;;;;;;;;;;5068753;28;20048;-56
2023/08/01 22:59:06;;;;;;;4.38;1.83;;;;;;;;;;5068541;28;20404;-56
2023/08/01 23:01:32;;;;;;;5.43;2.53;;;;;;;;;;5068533;28;20145;-56
2023/08/01 23:04:00;;;;;;;3.83;1.83;;;;;;;;;;5067316;28;20044;-56
2023/08/01 23:06:26;;;;;;;4.47;1.70;;;;;;;;;;5066445;28;20120;-56
2023/08/01 23:08:53;;;;;;;5.50;2.50;;;;;;;;;;5068124;28;20416;-56
2023/08/01 23:11:19;;;;;;;3.90;2.20;;;;;;;;;;5068061;28;20044;-56
2023/08/01 23:13:45;;;;;;;6.10;2.13;;;;;;;;;;5065628;28;20117;-56
2023/08/01 23:16:12;;;;;;;5.13;2.30;;;;;;;;;;5067435;28;20047;-56
2023/08/01 23:18:38;;;;;;;7.38;3.05;;;;;;;;;;5068017;28;20248;-56
2023/08/01 23:21:05;;;;;;;7.35;1.73;;;;;;;;;;5065865;28;20049;-56
2023/08/01 23:23:31;;;;;;;6.10;2.33;;;;;;;;;;5067195;28;20109;-56
2023/08/01 23:26:02;;;;;;;4.82;1.90;;;;;;;;;;5063540;28;20040;-56
2023/08/01 23:28:29;;;;;;;3.30;2.15;;;;;;;;;;5068581;28;20431;-56
2023/08/01 23:30:55;;;;;;;5.82;2.50;;;;;;;;;;5067409;28;20123;-56
2023/08/01 23:33:22;;;;;;;9.02;3.67;;;;;;;;;;5067947;28;20121;-56
2023/08/01 23:35:49;;;;;;;7.85;2.28;;;;;;;;;;5065803;28;20463;-56
2023/08/01 23:38:15;;;;;;;5.47;2.17;;;;;;;;;;5064759;28;20041;-56
2023/08/01 23:40:42;;;;;;;7.05;2.15;;;;;;;;;;5049070;28;20437;-56
2023/08/01 23:43:09;;;;;;;8.77;1.67;;;;;;;;;;5067608;28;20056;-56
2023/08/01 23:45:36;;;;;;;5.75;2.22;;;;;;;;;;5068368;28;20060;-56
2023/08/01 23:48:02;;;;;;;5.57;2.13;;;;;;;;;;5057561;28;20081;-56
2023/08/01 23:50:29;;;;;;;4.55;1.92;;;;;;;;;;5072300;28;20142;-56
2023/08/01 23:52:55;;;;;;;7.38;2.50;;;;;;;;;;5048721;28;20063;-56
2023/08/01 23:55:22;;;;;;;9.90;1.90;;;;;;;;;;5065795;28;20048;-56
2023/08/01 23:57:51;;;;;;;3.67;2.10;;;;;;;;;;5065985;28;20149;-56
